createdAt,value
2018-12-18T00:03:16.042Z,23.06
2018-12-18T00:09:11.072Z,15.29
2018-12-18T00:15:06.019Z,17.81
2018-12-18T00:21:01.062Z,18.1
2018-12-18T00:26:56.040Z,24.99
2018-12-18T00:32:51.025Z,23.29
2018-12-18T00:38:46.046Z,24.69
2018-12-18T00:44:41.029Z,21.51
2018-12-18T00:50:36.023Z,25.17
2018-12-18T00:56:31.078Z,19.97
2018-12-18T01:02:26.073Z,22.22
2018-12-18T01:08:21.054Z,22.28
2018-12-18T01:14:16.115Z,27.27
2018-12-18T01:20:11.043Z,24.09
2018-12-18T01:26:06.044Z,26.32
2018-12-18T01:32:01.059Z,23.34
2018-12-18T01:37:56.067Z,23.16
2018-12-18T01:43:51.057Z,20.78
2018-12-18T01:49:46.112Z,21.32
2018-12-18T01:55:41.070Z,20.12
2018-12-18T02:01:36.082Z,20.53
2018-12-18T02:07:31.097Z,19.54
2018-12-18T02:13:26.106Z,18.85
2018-12-18T02:19:21.088Z,18.3
2018-12-18T02:25:16.116Z,18.84
2018-12-18T02:31:11.076Z,13.29
2018-12-18T02:37:06.140Z,14.92
2018-12-18T02:48:56.105Z,20.73
2018-12-18T02:48:56.148Z,18.67
2018-12-18T02:54:51.088Z,22.66
2018-12-18T03:00:46.144Z,23.79
2018-12-18T03:06:41.134Z,22.5
2018-12-18T03:12:36.106Z,16.76
2018-12-18T03:18:31.124Z,14.88
2018-12-18T03:24:26.115Z,17.33
2018-12-18T03:30:21.125Z,19.66
2018-12-18T03:36:16.124Z,18.17
2018-12-18T03:42:11.146Z,16.97
2018-12-18T03:48:06.161Z,17.17
2018-12-18T03:54:01.176Z,18.18
2018-12-18T03:59:56.201Z,16.71
2018-12-18T04:05:51.222Z,17.53
2018-12-18T04:11:46.137Z,15.29
2018-12-18T04:17:41.167Z,17.08
2018-12-18T04:23:36.215Z,17.78
2018-12-18T04:29:31.158Z,14.28
2018-12-18T04:35:26.175Z,17.11
2018-12-18T04:41:21.183Z,17.2
2018-12-18T04:47:16.187Z,20.05
2018-12-18T04:53:11.183Z,16.43
2018-12-18T04:59:06.199Z,14.08
2018-12-18T05:05:01.175Z,15.61
2018-12-18T05:10:56.207Z,15.06
2018-12-18T05:16:51.243Z,15.67
2018-12-18T05:22:46.191Z,14.4
2018-12-18T05:28:41.235Z,14.54
2018-12-18T05:34:36.229Z,17.71
2018-12-18T05:40:31.196Z,14.86
2018-12-18T05:46:26.191Z,18.98
2018-12-18T05:52:21.236Z,19.2
2018-12-18T05:58:16.237Z,16.53
2018-12-18T06:04:11.192Z,13.75
2018-12-18T06:10:06.208Z,15.12
2018-12-18T06:16:01.226Z,17.34
2018-12-18T06:21:56.237Z,13.87
2018-12-18T06:27:51.244Z,16.13
2018-12-18T06:33:46.229Z,17.07
2018-12-18T06:39:41.229Z,21.54
2018-12-18T06:45:36.223Z,17.81
2018-12-18T06:51:31.241Z,18.41
2018-12-18T06:57:26.241Z,18.46
2018-12-18T07:03:21.250Z,16.06
2018-12-18T07:09:16.308Z,18.17
2018-12-18T07:15:11.260Z,17
2018-12-18T07:21:06.242Z,25.09
2018-12-18T07:27:01.273Z,23.61
2018-12-18T07:32:56.245Z,23.34
2018-12-18T07:38:51.257Z,22.17
2018-12-18T07:44:46.280Z,21.4
2018-12-18T07:50:41.316Z,28.41
2018-12-18T07:56:36.264Z,24.77
2018-12-18T08:02:31.292Z,58.71
2018-12-18T08:08:26.269Z,33.12
2018-12-18T08:14:21.278Z,23.65
2018-12-18T08:20:16.273Z,21.33
2018-12-18T08:26:11.283Z,11.91
2018-12-18T08:32:06.301Z,9.71
2018-12-18T08:38:01.286Z,14.74
2018-12-18T08:43:56.397Z,13.88
2018-12-18T08:49:51.312Z,16.45
2018-12-18T08:55:46.280Z,26.55
2018-12-18T09:01:41.303Z,39.52
2018-12-18T09:07:36.315Z,16.77
2018-12-18T09:13:31.372Z,14.37
2018-12-18T09:19:26.331Z,67.33
2018-12-18T09:25:21.315Z,26.79
2018-12-18T09:31:16.331Z,16.7
2018-12-18T09:37:11.307Z,13.17
2018-12-18T09:43:06.308Z,15.11
2018-12-18T09:49:01.325Z,12.2
2018-12-18T09:54:56.372Z,28.17
2018-12-18T10:00:51.347Z,13.11
2018-12-18T10:06:46.346Z,24.51
2018-12-18T10:12:41.321Z,16.5
2018-12-18T10:18:36.362Z,19.46
2018-12-18T10:24:31.331Z,18.32
2018-12-18T10:30:26.347Z,19.95
2018-12-18T10:36:21.320Z,18.07
2018-12-18T10:42:16.358Z,16.88
2018-12-18T10:48:11.381Z,11.91
2018-12-18T10:54:06.363Z,13.13
2018-12-18T11:00:01.361Z,9.64
2018-12-18T11:05:56.340Z,6.23
2018-12-18T11:11:51.466Z,9.01
2018-12-18T11:17:46.375Z,7.25
2018-12-18T11:23:41.390Z,4.7
2018-12-18T11:29:36.390Z,4.97
2018-12-18T11:35:31.384Z,3.45
2018-12-18T11:41:26.395Z,4.8
2018-12-18T11:47:21.386Z,6.98
2018-12-18T11:53:16.395Z,4.58
2018-12-18T11:59:11.410Z,5.89
2018-12-18T12:05:06.431Z,4.56
2018-12-18T12:11:01.463Z,3.83
2018-12-18T12:16:56.431Z,5.94
2018-12-18T12:22:51.433Z,5.12
2018-12-18T12:28:46.448Z,3.84
2018-12-18T12:34:41.411Z,17.68
2018-12-18T12:40:36.461Z,5.8
2018-12-18T12:46:31.485Z,8.8
2018-12-18T12:52:26.424Z,6.33
2018-12-18T12:58:21.421Z,5.91
2018-12-18T13:04:16.443Z,7.73
2018-12-18T13:10:11.479Z,12.62
2018-12-18T13:16:06.422Z,9.81
2018-12-18T13:22:01.484Z,7.13
2018-12-18T13:27:56.446Z,6.82
2018-12-18T13:33:51.439Z,8.83
2018-12-18T13:39:46.444Z,6.94
2018-12-18T13:45:41.481Z,6.38
2018-12-18T13:51:36.456Z,6.29
2018-12-18T13:57:31.473Z,7.44
2018-12-18T14:03:26.484Z,10.3
2018-12-18T14:09:21.495Z,10.05
2018-12-18T14:15:16.462Z,10.47
2018-12-18T14:21:11.458Z,12.44
2018-12-18T14:27:06.491Z,14.26
2018-12-18T14:33:01.503Z,16.64
2018-12-18T14:38:56.494Z,14.62
2018-12-18T14:44:51.488Z,23.33
2018-12-18T14:50:46.526Z,16.73
2018-12-18T14:56:41.558Z,14.68
2018-12-18T15:02:36.491Z,11.64
2018-12-18T15:08:31.503Z,12.87
2018-12-18T15:14:26.528Z,17.94
2018-12-18T15:20:21.520Z,17.05
2018-12-18T15:26:16.498Z,13.96
2018-12-18T15:32:11.521Z,14.81
2018-12-18T15:38:06.533Z,25.46
2018-12-18T15:44:01.529Z,27.63
2018-12-18T15:49:56.524Z,26.06
2018-12-18T15:55:51.532Z,23.12
2018-12-18T16:01:46.525Z,19.94
2018-12-18T16:07:41.523Z,24.59
2018-12-18T16:13:36.594Z,28.47
2018-12-18T16:19:31.549Z,19.13
2018-12-18T16:25:26.542Z,26.1
2018-12-18T16:31:21.582Z,24.72
2018-12-18T16:37:22.719Z,43.24
2018-12-18T16:43:11.569Z,20.46
2018-12-18T16:49:06.582Z,42.13
2018-12-18T16:55:01.566Z,28.98
2018-12-18T17:00:56.564Z,29.17
2018-12-18T17:06:51.572Z,37.32
2018-12-18T17:12:46.590Z,34.76
2018-12-18T17:18:41.591Z,61.56
2018-12-18T17:24:36.586Z,60.14
2018-12-18T17:30:31.631Z,45.4
2018-12-18T17:36:26.622Z,43.28
2018-12-18T17:42:21.583Z,55.09
2018-12-18T17:48:16.616Z,50.51
2018-12-18T17:54:11.594Z,40.82
2018-12-18T18:00:06.606Z,34.48
2018-12-18T18:06:01.606Z,37.92
2018-12-18T18:11:56.610Z,41.48
2018-12-18T18:17:51.612Z,33.81
2018-12-18T18:23:46.609Z,29.36
2018-12-18T18:29:41.602Z,26.5
2018-12-18T18:35:36.695Z,31.65
2018-12-18T18:41:31.615Z,27.13
2018-12-18T18:47:26.628Z,31.57
2018-12-18T18:53:21.613Z,26.82
2018-12-18T18:59:16.641Z,29.38
2018-12-18T19:05:11.647Z,24.22
2018-12-18T19:11:06.671Z,23.39
2018-12-18T19:17:01.621Z,29.98
2018-12-18T19:22:56.708Z,28.2
2018-12-18T19:28:51.665Z,24.45
2018-12-18T19:34:46.679Z,20.83
2018-12-18T19:40:41.683Z,25
2018-12-18T19:46:36.661Z,22.43
2018-12-18T19:52:31.692Z,24.52
2018-12-18T19:58:26.649Z,30.36
2018-12-18T20:04:21.670Z,29.63
2018-12-18T20:10:16.676Z,27.4
2018-12-18T20:16:12.299Z,27.98
2018-12-18T20:22:06.680Z,28.59
2018-12-18T20:28:01.675Z,28.02
2018-12-18T20:33:56.684Z,27.93
2018-12-18T20:39:51.682Z,33
2018-12-18T20:45:46.682Z,27.64
2018-12-18T20:51:41.723Z,38.41
2018-12-18T20:57:36.696Z,40.68
2018-12-18T21:03:31.693Z,31.26
2018-12-18T21:09:26.696Z,34.56
2018-12-18T21:15:21.717Z,41.79
2018-12-18T21:21:16.734Z,45.68
2018-12-18T21:27:11.756Z,48.14
2018-12-18T21:33:06.712Z,40.89
2018-12-18T21:39:01.716Z,42.63
2018-12-18T21:44:56.721Z,46.34
2018-12-18T21:50:51.746Z,35.58
2018-12-18T21:56:46.749Z,39.6
2018-12-18T22:02:41.734Z,40.19
2018-12-18T22:08:36.987Z,31.71
2018-12-18T22:14:31.739Z,41.74
2018-12-18T22:20:26.751Z,36.23
2018-12-18T22:26:21.759Z,35.52
2018-12-18T22:32:16.778Z,37.11
2018-12-18T22:38:11.772Z,28.86
2018-12-18T22:44:06.784Z,30.06
2018-12-18T22:50:01.751Z,37.98
2018-12-18T22:55:56.760Z,31.11
2018-12-18T23:01:51.790Z,31.69
2018-12-18T23:07:46.798Z,30.4
2018-12-18T23:13:41.776Z,28.97
2018-12-18T23:19:36.769Z,35.58
2018-12-18T23:25:31.780Z,31.12
2018-12-18T23:31:26.779Z,32
2018-12-18T23:37:21.770Z,35.44
2018-12-18T23:43:16.780Z,33.41
2018-12-18T23:49:11.838Z,29.66
2018-12-18T23:55:06.786Z,34.77
